sensor_id;sensor_type;location;lat;lon;timestamp;temperature;humidity
55331;DHT22;58851;42.984;20.336;2022-09-09T00:04:33;435.70;2355.20
55331;DHT22;58851;42.984;20.336;2022-09-09T00:07:20;435.70;2355.20
55331;DHT22;58851;42.984;20.336;2022-09-09T00:10:03;435.60;2355.20
55331;DHT22;58851;42.984;20.336;2022-09-09T00:12:47;435.60;2355.20
55331;DHT22;58851;42.984;20.336;2022-09-09T00:15:19;435.50;2355.20
55331;DHT22;58851;42.984;20.336;2022-09-09T00:17:53;435.50;2355.20
55331;DHT22;58851;42.984;20.336;2022-09-09T00:20:32;435.50;2355.20
55331;DHT22;58851;42.984;20.336;2022-09-09T00:23:16;435.40;2355.20
55331;DHT22;58851;42.984;20.336;2022-09-09T00:26:14;435.40;2355.20
55331;DHT22;58851;42.984;20.336;2022-09-09T00:31:32;435.40;2355.20
55331;DHT22;58851;42.984;20.336;2022-09-09T00:34:03;435.40;2355.20
55331;DHT22;58851;42.984;20.336;2022-09-09T00:36:31;435.40;2355.20
55331;DHT22;58851;42.984;20.336;2022-09-09T00:39:01;435.40;2355.20
55331;DHT22;58851;42.984;20.336;2022-09-09T00:52:42;410.50;2355.20
55331;DHT22;58851;42.984;20.336;2022-09-09T00:57:54;410.40;2355.20
55331;DHT22;58851;42.984;20.336;2022-09-09T01:03:39;410.50;2355.20
55331;DHT22;58851;42.984;20.336;2022-09-09T01:06:46;410.40;2355.20
55331;DHT22;58851;42.984;20.336;2022-09-09T01:09:45;410.50;2355.20
55331;DHT22;58851;42.984;20.336;2022-09-09T01:12:25;410.50;2355.20
55331;DHT22;58851;42.984;20.336;2022-09-09T01:15:00;410.40;2355.20
55331;DHT22;58851;42.984;20.336;2022-09-09T01:18:16;410.50;2355.20
55331;DHT22;58851;42.984;20.336;2022-09-09T01:23:31;410.30;2355.20
55331;DHT22;58851;42.984;20.336;2022-09-09T01:26:19;410.30;2355.20
55331;DHT22;58851;42.984;20.336;2022-09-09T01:28:49;410.30;2355.20
55331;DHT22;58851;42.984;20.336;2022-09-09T01:31:35;410.40;2355.20
55331;DHT22;58851;42.984;20.336;2022-09-09T01:34:02;410.50;2355.20
55331;DHT22;58851;42.984;20.336;2022-09-09T01:39:26;435.20;2355.20
55331;DHT22;58851;42.984;20.336;2022-09-09T01:41:53;435.20;2355.20
55331;DHT22;58851;42.984;20.336;2022-09-09T01:44:21;435.20;2355.20
55331;DHT22;58851;42.984;20.336;2022-09-09T01:46:47;435.20;2355.20
55331;DHT22;58851;42.984;20.336;2022-09-09T01:49:13;435.20;2355.20
55331;DHT22;58851;42.984;20.336;2022-09-09T01:51:41;435.20;2355.20
55331;DHT22;58851;42.984;20.336;2022-09-09T01:54:07;435.20;2355.20
55331;DHT22;58851;42.984;20.336;2022-09-09T01:56:42;410.50;2355.20
55331;DHT22;58851;42.984;20.336;2022-09-09T01:59:32;410.40;2355.20
55331;DHT22;58851;42.984;20.336;2022-09-09T02:02:10;410.50;2355.20
55331;DHT22;58851;42.984;20.336;2022-09-09T02:04:41;410.50;2355.20
55331;DHT22;58851;42.984;20.336;2022-09-09T02:10:24;435.20;2355.20
55331;DHT22;58851;42.984;20.336;2022-09-09T02:13:00;435.20;2355.20
55331;DHT22;58851;42.984;20.336;2022-09-09T02:18:08;410.40;2355.20
55331;DHT22;58851;42.984;20.336;2022-09-09T02:20:39;410.40;2355.20
55331;DHT22;58851;42.984;20.336;2022-09-09T02:23:07;410.30;2355.20
55331;DHT22;58851;42.984;20.336;2022-09-09T02:25:36;410.30;2355.20
55331;DHT22;58851;42.984;20.336;2022-09-09T02:28:06;410.40;2355.20
55331;DHT22;58851;42.984;20.336;2022-09-09T02:30:34;410.40;2355.20
55331;DHT22;58851;42.984;20.336;2022-09-09T02:33:02;410.40;2355.20
55331;DHT22;58851;42.984;20.336;2022-09-09T02:35:30;410.40;2355.20
55331;DHT22;58851;42.984;20.336;2022-09-09T02:38:01;410.30;2355.20
55331;DHT22;58851;42.984;20.336;2022-09-09T02:40:29;410.30;2355.20
55331;DHT22;58851;42.984;20.336;2022-09-09T02:42:55;410.20;2355.20
55331;DHT22;58851;42.984;20.336;2022-09-09T02:45:27;410.30;2355.20
55331;DHT22;58851;42.984;20.336;2022-09-09T02:48:09;410.30;2355.20
55331;DHT22;58851;42.984;20.336;2022-09-09T02:53:37;410.30;2355.20
55331;DHT22;58851;42.984;20.336;2022-09-09T02:56:16;410.20;2355.20
55331;DHT22;58851;42.984;20.336;2022-09-09T02:58:42;410.20;2355.20
55331;DHT22;58851;42.984;20.336;2022-09-09T03:01:09;410.20;2355.20
55331;DHT22;58851;42.984;20.336;2022-09-09T03:03:35;410.10;2355.20
55331;DHT22;58851;42.984;20.336;2022-09-09T03:06:01;410.10;2355.20
55331;DHT22;58851;42.984;20.336;2022-09-09T03:08:27;410.20;2355.20
55331;DHT22;58851;42.984;20.336;2022-09-09T03:10:54;410.20;2355.20
55331;DHT22;58851;42.984;20.336;2022-09-09T03:13:20;410.30;2355.20
55331;DHT22;58851;42.984;20.336;2022-09-09T03:15:48;410.30;2355.20
55331;DHT22;58851;42.984;20.336;2022-09-09T03:18:14;410.30;2355.20
55331;DHT22;58851;42.984;20.336;2022-09-09T03:20:40;410.30;2355.20
55331;DHT22;58851;42.984;20.336;2022-09-09T03:23:07;410.30;2355.20
55331;DHT22;58851;42.984;20.336;2022-09-09T03:25:33;410.30;2355.20
55331;DHT22;58851;42.984;20.336;2022-09-09T03:27:59;410.20;2355.20
55331;DHT22;58851;42.984;20.336;2022-09-09T03:30:27;410.10;2355.20
55331;DHT22;58851;42.984;20.336;2022-09-09T03:32:54;410.20;2355.20
55331;DHT22;58851;42.984;20.336;2022-09-09T03:35:21;410.20;2355.20
55331;DHT22;58851;42.984;20.336;2022-09-09T03:37:47;410.10;2355.20
55331;DHT22;58851;42.984;20.336;2022-09-09T03:40:12;410.10;2355.20
55331;DHT22;58851;42.984;20.336;2022-09-09T03:42:39;410.10;2355.20
55331;DHT22;58851;42.984;20.336;2022-09-09T03:45:07;410.10;2355.20
55331;DHT22;58851;42.984;20.336;2022-09-09T03:47:34;410.10;2355.20
55331;DHT22;58851;42.984;20.336;2022-09-09T03:50:00;410.20;2355.20
55331;DHT22;58851;42.984;20.336;2022-09-09T03:52:26;410.20;2355.20
55331;DHT22;58851;42.984;20.336;2022-09-09T03:54:53;409.70;2355.20
55331;DHT22;58851;42.984;20.336;2022-09-09T03:57:20;409.70;2355.20
55331;DHT22;58851;42.984;20.336;2022-09-09T03:59:45;409.80;2355.20
55331;DHT22;58851;42.984;20.336;2022-09-09T04:02:11;409.70;2355.20
55331;DHT22;58851;42.984;20.336;2022-09-09T04:04:37;409.70;2355.20
55331;DHT22;58851;42.984;20.336;2022-09-09T04:07:03;409.60;2355.20
55331;DHT22;58851;42.984;20.336;2022-09-09T04:09:31;409.80;2355.20
55331;DHT22;58851;42.984;20.336;2022-09-09T04:11:57;409.90;2355.20
55331;DHT22;58851;42.984;20.336;2022-09-09T04:14:23;409.90;2355.20
55331;DHT22;58851;42.984;20.336;2022-09-09T04:16:48;410.10;2355.20
55331;DHT22;58851;42.984;20.336;2022-09-09T04:19:14;410.10;2355.20
55331;DHT22;58851;42.984;20.336;2022-09-09T04:21:41;410.10;2355.20
55331;DHT22;58851;42.984;20.336;2022-09-09T04:24:08;410.20;2355.20
55331;DHT22;58851;42.984;20.336;2022-09-09T04:26:34;410.20;2355.20
55331;DHT22;58851;42.984;20.336;2022-09-09T04:29:02;410.20;2355.20
55331;DHT22;58851;42.984;20.336;2022-09-09T04:31:28;410.20;2355.20
55331;DHT22;58851;42.984;20.336;2022-09-09T04:33:54;410.20;2355.20
55331;DHT22;58851;42.984;20.336;2022-09-09T04:36:20;410.20;2355.20
55331;DHT22;58851;42.984;20.336;2022-09-09T04:38:46;410.10;2355.20
55331;DHT22;58851;42.984;20.336;2022-09-09T04:41:15;410.10;2355.20
55331;DHT22;58851;42.984;20.336;2022-09-09T04:43:42;410.20;2355.20
55331;DHT22;58851;42.984;20.336;2022-09-09T04:46:08;410.10;2355.20
55331;DHT22;58851;42.984;20.336;2022-09-09T04:48:34;410.00;2355.20
55331;DHT22;58851;42.984;20.336;2022-09-09T04:51:08;410.20;2355.20
55331;DHT22;58851;42.984;20.336;2022-09-09T04:53:34;410.20;2355.20
55331;DHT22;58851;42.984;20.336;2022-09-09T04:56:15;410.20;2355.20
55331;DHT22;58851;42.984;20.336;2022-09-09T04:58:41;410.30;2355.20
55331;DHT22;58851;42.984;20.336;2022-09-09T05:01:21;410.30;2355.20
55331;DHT22;58851;42.984;20.336;2022-09-09T05:03:48;410.40;2355.20
55331;DHT22;58851;42.984;20.336;2022-09-09T05:06:20;410.40;2355.20
55331;DHT22;58851;42.984;20.336;2022-09-09T05:08:46;410.10;2355.20
55331;DHT22;58851;42.984;20.336;2022-09-09T05:11:16;410.00;2355.20
55331;DHT22;58851;42.984;20.336;2022-09-09T05:13:42;410.00;2355.20
55331;DHT22;58851;42.984;20.336;2022-09-09T05:16:09;410.10;2355.20
55331;DHT22;58851;42.984;20.336;2022-09-09T05:18:37;410.10;2355.20
55331;DHT22;58851;42.984;20.336;2022-09-09T05:21:03;410.00;2355.20
55331;DHT22;58851;42.984;20.336;2022-09-09T05:23:30;409.90;2355.20
55331;DHT22;58851;42.984;20.336;2022-09-09T05:25:57;409.90;2355.20
55331;DHT22;58851;42.984;20.336;2022-09-09T05:28:24;409.80;2355.20
55331;DHT22;58851;42.984;20.336;2022-09-09T05:31:02;409.60;2355.20
55331;DHT22;58851;42.984;20.336;2022-09-09T05:33:34;409.60;2355.20
55331;DHT22;58851;42.984;20.336;2022-09-09T05:36:03;384.90;2329.60
55331;DHT22;58851;42.984;20.336;2022-09-09T05:38:30;384.90;2329.60
55331;DHT22;58851;42.984;20.336;2022-09-09T05:40:58;409.60;2355.20
55331;DHT22;58851;42.984;20.336;2022-09-09T05:43:24;409.70;2355.20
55331;DHT22;58851;42.984;20.336;2022-09-09T05:46:07;409.80;2355.20
55331;DHT22;58851;42.984;20.336;2022-09-09T05:48:35;409.90;2355.20
55331;DHT22;58851;42.984;20.336;2022-09-09T05:51:03;409.90;2355.20
55331;DHT22;58851;42.984;20.336;2022-09-09T05:53:30;409.80;2355.20
55331;DHT22;58851;42.984;20.336;2022-09-09T05:56:07;409.80;2355.20
55331;DHT22;58851;42.984;20.336;2022-09-09T05:58:36;409.90;2355.20
55331;DHT22;58851;42.984;20.336;2022-09-09T06:01:10;409.90;2355.20
55331;DHT22;58851;42.984;20.336;2022-09-09T06:03:39;409.90;2355.20
55331;DHT22;58851;42.984;20.336;2022-09-09T06:06:10;410.10;2150.40
55331;DHT22;58851;42.984;20.336;2022-09-09T06:08:40;410.10;2355.20
55331;DHT22;58851;42.984;20.336;2022-09-09T06:11:20;409.80;2150.40
55331;DHT22;58851;42.984;20.336;2022-09-09T06:13:47;409.80;2355.20
55331;DHT22;58851;42.984;20.336;2022-09-09T06:16:16;409.70;2355.20
55331;DHT22;58851;42.984;20.336;2022-09-09T06:18:43;409.60;2355.20
55331;DHT22;58851;42.984;20.336;2022-09-09T06:21:24;409.70;2355.20
55331;DHT22;58851;42.984;20.336;2022-09-09T06:23:51;409.80;2355.20
55331;DHT22;58851;42.984;20.336;2022-09-09T06:28:50;409.80;2355.20
55331;DHT22;58851;42.984;20.336;2022-09-09T06:31:17;409.90;2355.20
55331;DHT22;58851;42.984;20.336;2022-09-09T06:33:47;409.90;2355.20
55331;DHT22;58851;42.984;20.336;2022-09-09T06:36:13;409.90;2355.20
55331;DHT22;58851;42.984;20.336;2022-09-09T06:38:41;409.90;2355.20
55331;DHT22;58851;42.984;20.336;2022-09-09T06:41:08;409.90;2355.20
55331;DHT22;58851;42.984;20.336;2022-09-09T06:43:35;409.90;2355.20
55331;DHT22;58851;42.984;20.336;2022-09-09T06:46:03;410.00;2355.20
55331;DHT22;58851;42.984;20.336;2022-09-09T06:48:29;410.10;2355.20
55331;DHT22;58851;42.984;20.336;2022-09-09T06:53:31;410.10;2355.20
55331;DHT22;58851;42.984;20.336;2022-09-09T06:56:17;410.10;1971.20
55331;DHT22;58851;42.984;20.336;2022-09-09T06:58:43;409.90;2355.20
55331;DHT22;58851;42.984;20.336;2022-09-09T07:01:12;409.80;2355.20
55331;DHT22;58851;42.984;20.336;2022-09-09T07:03:39;409.80;2355.20
55331;DHT22;58851;42.984;20.336;2022-09-09T07:06:05;409.80;2355.20
55331;DHT22;58851;42.984;20.336;2022-09-09T07:08:33;409.70;2355.20
55331;DHT22;58851;42.984;20.336;2022-09-09T07:11:07;409.60;2355.20
55331;DHT22;58851;42.984;20.336;2022-09-09T07:13:33;384.90;2329.60
55331;DHT22;58851;42.984;20.336;2022-09-09T07:16:11;384.90;2329.60
55331;DHT22;58851;42.984;20.336;2022-09-09T07:18:37;409.60;2355.20
55331;DHT22;58851;42.984;20.336;2022-09-09T07:21:03;409.70;2355.20
55331;DHT22;58851;42.984;20.336;2022-09-09T07:23:30;409.80;2355.20
55331;DHT22;58851;42.984;20.336;2022-09-09T07:25:57;409.90;2355.20
55331;DHT22;58851;42.984;20.336;2022-09-09T07:28:24;409.90;2355.20
55331;DHT22;58851;42.984;20.336;2022-09-09T07:31:00;410.00;2355.20
55331;DHT22;58851;42.984;20.336;2022-09-09T07:33:28;410.00;2355.20
55331;DHT22;58851;42.984;20.336;2022-09-09T07:36:03;410.10;2355.20
55331;DHT22;58851;42.984;20.336;2022-09-09T07:38:29;410.10;2355.20
55331;DHT22;58851;42.984;20.336;2022-09-09T07:41:04;410.10;2355.20
55331;DHT22;58851;42.984;20.336;2022-09-09T07:43:31;410.10;2355.20
55331;DHT22;58851;42.984;20.336;2022-09-09T07:46:00;410.20;2355.20
55331;DHT22;58851;42.984;20.336;2022-09-09T07:48:29;410.20;2355.20
55331;DHT22;58851;42.984;20.336;2022-09-09T07:51:14;410.20;2355.20
55331;DHT22;58851;42.984;20.336;2022-09-09T07:53:46;410.30;2355.20
55331;DHT22;58851;42.984;20.336;2022-09-09T07:56:16;410.30;2355.20
55331;DHT22;58851;42.984;20.336;2022-09-09T07:58:45;410.30;2355.20
55331;DHT22;58851;42.984;20.336;2022-09-09T08:03:44;410.30;2355.20
55331;DHT22;58851;42.984;20.336;2022-09-09T08:06:11;410.30;2355.20
55331;DHT22;58851;42.984;20.336;2022-09-09T08:08:38;410.40;2176.00
55331;DHT22;58851;42.984;20.336;2022-09-09T08:11:12;410.40;2329.60
55331;DHT22;58851;42.984;20.336;2022-09-09T08:13:39;410.40;2201.60
55331;DHT22;58851;42.984;20.336;2022-09-09T08:16:12;410.50;2355.20
55331;DHT22;58851;42.984;20.336;2022-09-09T08:18:38;410.40;2124.80
55331;DHT22;58851;42.984;20.336;2022-09-09T08:21:09;410.20;2355.20
55331;DHT22;58851;42.984;20.336;2022-09-09T08:23:39;410.20;2355.20
55331;DHT22;58851;42.984;20.336;2022-09-09T08:26:10;410.20;2355.20
55331;DHT22;58851;42.984;20.336;2022-09-09T08:28:37;410.40;2355.20
55331;DHT22;58851;42.984;20.336;2022-09-09T08:31:30;435.20;2355.20
55331;DHT22;58851;42.984;20.336;2022-09-09T08:33:57;435.40;2355.20
55331;DHT22;58851;42.984;20.336;2022-09-09T08:36:26;435.50;2355.20
55331;DHT22;58851;42.984;20.336;2022-09-09T08:38:54;435.70;2355.20
55331;DHT22;58851;42.984;20.336;2022-09-09T08:53:17;435.70;2355.20
55331;DHT22;58851;42.984;20.336;2022-09-09T08:58:11;460.80;2380.80
55331;DHT22;58851;42.984;20.336;2022-09-09T09:03:32;461.30;2380.80
55331;DHT22;58851;42.984;20.336;2022-09-09T09:11:46;486.40;2380.80
55331;DHT22;58851;42.984;20.336;2022-09-09T09:14:23;486.50;2380.80
55331;DHT22;58851;42.984;20.336;2022-09-09T09:19:24;486.90;2380.80
55331;DHT22;58851;42.984;20.336;2022-09-09T09:27:58;487.00;2380.80
55331;DHT22;58851;42.984;20.336;2022-09-09T09:30:35;487.00;2380.80
55331;DHT22;58851;42.984;20.336;2022-09-09T09:35:56;487.10;2380.80
55331;DHT22;58851;42.984;20.336;2022-09-09T09:38:26;487.10;2380.80
55331;DHT22;58851;42.984;20.336;2022-09-09T09:40:58;487.30;2380.80
55331;DHT22;58851;42.984;20.336;2022-09-09T09:43:30;512.00;2380.80
55331;DHT22;58851;42.984;20.336;2022-09-09T09:45:58;512.20;2380.80
55331;DHT22;58851;42.984;20.336;2022-09-09T09:48:25;512.30;2380.80
55331;DHT22;58851;42.984;20.336;2022-09-09T09:50:57;512.50;2201.60
55331;DHT22;58851;42.984;20.336;2022-09-09T09:53:32;512.80;2380.80
55331;DHT22;58851;42.984;20.336;2022-09-09T09:56:02;537.60;2406.40
55331;DHT22;58851;42.984;20.336;2022-09-09T09:58:48;537.70;2406.40
55331;DHT22;58851;42.984;20.336;2022-09-09T10:01:30;537.80;1843.20
55331;DHT22;58851;42.984;20.336;2022-09-09T10:04:22;537.90;1331.20
55331;DHT22;58851;42.984;20.336;2022-09-09T10:06:51;538.10;1100.80
55331;DHT22;58851;42.984;20.336;2022-09-09T10:09:26;538.20;844.80
55331;DHT22;58851;42.984;20.336;2022-09-09T10:14:36;538.10;665.60
55331;DHT22;58851;42.984;20.336;2022-09-09T10:17:20;537.90;537.60
55331;DHT22;58851;42.984;20.336;2022-09-09T10:20:10;538.00;563.20
55331;DHT22;58851;42.984;20.336;2022-09-09T10:22:39;538.20;256.00
55331;DHT22;58851;42.984;20.336;2022-09-09T10:25:22;538.40;716.80
55331;DHT22;58851;42.984;20.336;2022-09-09T10:28:52;563.30;128.00
55331;DHT22;58851;42.984;20.336;2022-09-09T10:36:45;563.80;128.00
55331;DHT22;58851;42.984;20.336;2022-09-09T10:39:26;563.80;281.60
55331;DHT22;58851;42.984;20.336;2022-09-09T10:42:07;563.80;128.00
55331;DHT22;58851;42.984;20.336;2022-09-09T10:47:56;563.90;793.60
55331;DHT22;58851;42.984;20.336;2022-09-09T10:50:51;563.90;128.00
55331;DHT22;58851;42.984;20.336;2022-09-09T10:56:10;589.10;128.00
55331;DHT22;58851;42.984;20.336;2022-09-09T11:01:22;589.70;128.00
55331;DHT22;58851;42.984;20.336;2022-09-09T11:03:55;589.30;128.00
55331;DHT22;58851;42.984;20.336;2022-09-09T11:06:28;589.40;128.00
55331;DHT22;58851;42.984;20.336;2022-09-09T11:08:57;589.50;128.00
55331;DHT22;58851;42.984;20.336;2022-09-09T11:11:52;589.70;128.00
55331;DHT22;58851;42.984;20.336;2022-09-09T11:14:36;589.50;128.00
55331;DHT22;58851;42.984;20.336;2022-09-09T11:17:09;589.60;128.00
55331;DHT22;58851;42.984;20.336;2022-09-09T11:19:40;589.60;128.00
55331;DHT22;58851;42.984;20.336;2022-09-09T11:25:03;589.60;128.00
55331;DHT22;58851;42.984;20.336;2022-09-09T11:30:20;589.50;128.00
55331;DHT22;58851;42.984;20.336;2022-09-09T11:38:47;589.40;128.00
55331;DHT22;58851;42.984;20.336;2022-09-09T11:41:18;589.40;128.00
55331;DHT22;58851;42.984;20.336;2022-09-09T11:43:53;589.10;128.00
55331;DHT22;58851;42.984;20.336;2022-09-09T11:46:35;589.10;128.00
55331;DHT22;58851;42.984;20.336;2022-09-09T11:49:04;589.00;128.00
55331;DHT22;58851;42.984;20.336;2022-09-09T11:51:32;588.80;128.00
55331;DHT22;58851;42.984;20.336;2022-09-09T11:54:25;588.90;128.00
55331;DHT22;58851;42.984;20.336;2022-09-09T11:56:49;589.00;128.00
55331;DHT22;58851;42.984;20.336;2022-09-09T11:59:25;589.00;128.00
55331;DHT22;58851;42.984;20.336;2022-09-09T12:01:55;589.10;128.00
55331;DHT22;58851;42.984;20.336;2022-09-09T12:07:21;589.00;128.00
55331;DHT22;58851;42.984;20.336;2022-09-09T12:09:58;588.90;128.00
55331;DHT22;58851;42.984;20.336;2022-09-09T12:12:37;588.90;153.60
55331;DHT22;58851;42.984;20.336;2022-09-09T12:17:57;589.20;128.00
55331;DHT22;58851;42.984;20.336;2022-09-09T12:31:57;589.30;128.00
55331;DHT22;58851;42.984;20.336;2022-09-09T12:37:12;589.20;128.00
55331;DHT22;58851;42.984;20.336;2022-09-09T12:39:47;589.30;128.00
55331;DHT22;58851;42.984;20.336;2022-09-09T12:42:19;589.30;128.00
55331;DHT22;58851;42.984;20.336;2022-09-09T12:45:31;589.30;128.00
55331;DHT22;58851;42.984;20.336;2022-09-09T12:50:31;589.30;128.00
55331;DHT22;58851;42.984;20.336;2022-09-09T12:53:00;589.20;128.00
55331;DHT22;58851;42.984;20.336;2022-09-09T12:55:32;589.10;128.00
55331;DHT22;58851;42.984;20.336;2022-09-09T12:58:05;589.10;230.40
55331;DHT22;58851;42.984;20.336;2022-09-09T13:00:33;589.00;128.00
55331;DHT22;58851;42.984;20.336;2022-09-09T13:03:15;588.90;204.80
55331;DHT22;58851;42.984;20.336;2022-09-09T13:05:42;588.90;358.40
55331;DHT22;58851;42.984;20.336;2022-09-09T13:08:13;588.90;384.00
55331;DHT22;58851;42.984;20.336;2022-09-09T13:10:52;589.10;332.80
55331;DHT22;58851;42.984;20.336;2022-09-09T13:13:30;589.00;614.40
55331;DHT22;58851;42.984;20.336;2022-09-09T13:16:02;588.90;998.40
55331;DHT22;58851;42.984;20.336;2022-09-09T13:18:33;564.10;1305.60
55331;DHT22;58851;42.984;20.336;2022-09-09T13:20:59;564.10;1254.40
55331;DHT22;58851;42.984;20.336;2022-09-09T13:23:31;564.00;1510.40
55331;DHT22;58851;42.984;20.336;2022-09-09T13:26:00;563.80;1945.60
55331;DHT22;58851;42.984;20.336;2022-09-09T13:28:28;563.70;2176.00
55331;DHT22;58851;42.984;20.336;2022-09-09T13:31:03;563.60;2329.60
55331;DHT22;58851;42.984;20.336;2022-09-09T13:33:37;563.50;2432.00
55331;DHT22;58851;42.984;20.336;2022-09-09T13:36:11;563.40;2432.00
55331;DHT22;58851;42.984;20.336;2022-09-09T13:38:53;563.40;2432.00
55331;DHT22;58851;42.984;20.336;2022-09-09T13:41:22;563.30;2432.00
55331;DHT22;58851;42.984;20.336;2022-09-09T13:43:49;563.30;2432.00
55331;DHT22;58851;42.984;20.336;2022-09-09T13:46:37;538.50;2406.40
55331;DHT22;58851;42.984;20.336;2022-09-09T13:51:36;538.40;2406.40
55331;DHT22;58851;42.984;20.336;2022-09-09T13:54:04;538.20;2406.40
55331;DHT22;58851;42.984;20.336;2022-09-09T13:56:32;538.10;2406.40
55331;DHT22;58851;42.984;20.336;2022-09-09T13:58:58;538.00;2406.40
55331;DHT22;58851;42.984;20.336;2022-09-09T14:01:24;537.80;2406.40
55331;DHT22;58851;42.984;20.336;2022-09-09T14:03:50;537.90;2406.40
55331;DHT22;58851;42.984;20.336;2022-09-09T14:06:16;537.90;2406.40
55331;DHT22;58851;42.984;20.336;2022-09-09T14:08:44;537.90;2406.40
55331;DHT22;58851;42.984;20.336;2022-09-09T14:11:12;537.90;2406.40
55331;DHT22;58851;42.984;20.336;2022-09-09T14:13:38;537.90;2406.40
55331;DHT22;58851;42.984;20.336;2022-09-09T14:16:04;537.90;2406.40
55331;DHT22;58851;42.984;20.336;2022-09-09T14:18:30;537.90;2406.40
55331;DHT22;58851;42.984;20.336;2022-09-09T14:20:56;538.10;2406.40
55331;DHT22;58851;42.984;20.336;2022-09-09T14:23:24;538.10;2406.40
55331;DHT22;58851;42.984;20.336;2022-09-09T14:25:51;538.20;2406.40
55331;DHT22;58851;42.984;20.336;2022-09-09T14:28:17;538.20;2406.40
55331;DHT22;58851;42.984;20.336;2022-09-09T14:30:43;538.30;2406.40
55331;DHT22;58851;42.984;20.336;2022-09-09T14:33:14;538.30;2406.40
55331;DHT22;58851;42.984;20.336;2022-09-09T14:35:40;538.20;2406.40
55331;DHT22;58851;42.984;20.336;2022-09-09T14:38:07;538.30;2406.40
55331;DHT22;58851;42.984;20.336;2022-09-09T14:40:35;538.50;2406.40
55331;DHT22;58851;42.984;20.336;2022-09-09T14:43:01;563.30;2432.00
55331;DHT22;58851;42.984;20.336;2022-09-09T14:45:27;563.50;2432.00
55331;DHT22;58851;42.984;20.336;2022-09-09T14:47:53;563.70;2432.00
55331;DHT22;58851;42.984;20.336;2022-09-09T14:50:20;563.70;2432.00
55331;DHT22;58851;42.984;20.336;2022-09-09T14:52:46;563.70;2432.00
55331;DHT22;58851;42.984;20.336;2022-09-09T14:55:12;563.60;2432.00
55331;DHT22;58851;42.984;20.336;2022-09-09T14:57:38;563.70;2432.00
55331;DHT22;58851;42.984;20.336;2022-09-09T15:00:07;563.70;2304.00
55331;DHT22;58851;42.984;20.336;2022-09-09T15:02:33;563.70;2432.00
55331;DHT22;58851;42.984;20.336;2022-09-09T15:04:59;563.70;2432.00
55331;DHT22;58851;42.984;20.336;2022-09-09T15:07:25;563.70;2432.00
55331;DHT22;58851;42.984;20.336;2022-09-09T15:09:52;563.60;2432.00
55331;DHT22;58851;42.984;20.336;2022-09-09T15:12:18;563.50;2432.00
55331;DHT22;58851;42.984;20.336;2022-09-09T15:14:45;563.40;2432.00
55331;DHT22;58851;42.984;20.336;2022-09-09T15:17:11;563.20;2432.00
55331;DHT22;58851;42.984;20.336;2022-09-09T15:19:37;538.40;2406.40
55331;DHT22;58851;42.984;20.336;2022-09-09T15:22:04;538.20;2406.40
55331;DHT22;58851;42.984;20.336;2022-09-09T15:24:34;538.20;2406.40
55331;DHT22;58851;42.984;20.336;2022-09-09T15:27:01;538.30;2406.40
55331;DHT22;58851;42.984;20.336;2022-09-09T15:29:27;538.20;2406.40
55331;DHT22;58851;42.984;20.336;2022-09-09T15:31:54;538.20;2406.40
55331;DHT22;58851;42.984;20.336;2022-09-09T15:34:23;538.30;2406.40
55331;DHT22;58851;42.984;20.336;2022-09-09T15:36:50;538.50;2406.40
55331;DHT22;58851;42.984;20.336;2022-09-09T15:39:17;538.40;2406.40
55331;DHT22;58851;42.984;20.336;2022-09-09T15:41:44;538.50;2406.40
55331;DHT22;58851;42.984;20.336;2022-09-09T15:44:11;563.30;2432.00
55331;DHT22;58851;42.984;20.336;2022-09-09T15:46:50;563.40;2432.00
55331;DHT22;58851;42.984;20.336;2022-09-09T15:49:22;563.50;2073.60
55331;DHT22;58851;42.984;20.336;2022-09-09T15:51:59;563.40;2432.00
55331;DHT22;58851;42.984;20.336;2022-09-09T15:54:32;563.30;2432.00
55331;DHT22;58851;42.984;20.336;2022-09-09T15:57:01;563.20;2432.00
55331;DHT22;58851;42.984;20.336;2022-09-09T15:59:29;563.20;2432.00
55331;DHT22;58851;42.984;20.336;2022-09-09T16:01:55;538.50;2406.40
55331;DHT22;58851;42.984;20.336;2022-09-09T16:04:23;538.50;2406.40
55331;DHT22;58851;42.984;20.336;2022-09-09T16:06:58;538.50;2406.40
55331;DHT22;58851;42.984;20.336;2022-09-09T16:09:25;538.50;2406.40
55331;DHT22;58851;42.984;20.336;2022-09-09T16:11:51;563.30;2432.00
55331;DHT22;58851;42.984;20.336;2022-09-09T16:14:18;563.40;2432.00
55331;DHT22;58851;42.984;20.336;2022-09-09T16:16:45;563.50;2432.00
55331;DHT22;58851;42.984;20.336;2022-09-09T16:19:12;563.60;2432.00
55331;DHT22;58851;42.984;20.336;2022-09-09T16:21:43;563.70;2432.00
55331;DHT22;58851;42.984;20.336;2022-09-09T16:24:12;563.90;2432.00
55331;DHT22;58851;42.984;20.336;2022-09-09T16:26:40;563.90;2432.00
55331;DHT22;58851;42.984;20.336;2022-09-09T16:29:06;564.10;2432.00
55331;DHT22;58851;42.984;20.336;2022-09-09T16:31:32;588.80;2432.00
55331;DHT22;58851;42.984;20.336;2022-09-09T16:33:58;564.10;2432.00
55331;DHT22;58851;42.984;20.336;2022-09-09T16:36:26;564.00;2432.00
55331;DHT22;58851;42.984;20.336;2022-09-09T16:39:06;563.90;2432.00
55331;DHT22;58851;42.984;20.336;2022-09-09T16:41:39;563.70;2432.00
55331;DHT22;58851;42.984;20.336;2022-09-09T16:44:09;563.60;2432.00
55331;DHT22;58851;42.984;20.336;2022-09-09T16:46:40;563.50;2432.00
55331;DHT22;58851;42.984;20.336;2022-09-09T16:49:12;563.20;2432.00
55331;DHT22;58851;42.984;20.336;2022-09-09T16:51:46;538.40;2406.40
55331;DHT22;58851;42.984;20.336;2022-09-09T16:54:13;538.40;2406.40
55331;DHT22;58851;42.984;20.336;2022-09-09T16:56:43;538.30;2406.40
55331;DHT22;58851;42.984;20.336;2022-09-09T16:59:15;538.10;2406.40
55331;DHT22;58851;42.984;20.336;2022-09-09T17:01:42;537.90;2406.40
55331;DHT22;58851;42.984;20.336;2022-09-09T17:04:11;537.80;2406.40
55331;DHT22;58851;42.984;20.336;2022-09-09T17:06:39;537.70;2406.40
55331;DHT22;58851;42.984;20.336;2022-09-09T17:09:10;537.60;2406.40
55331;DHT22;58851;42.984;20.336;2022-09-09T17:11:37;537.60;2406.40